Aviation Digital Data Service (ADDS)

Output produced by TAFs form (1916 UTC 23 April 2018)
found at http://www.aviationweather.gov/adds/tafs/
 
KMCO 231853Z 18007KT 10SM SCT040CB BKN060 BKN120 29/20 A2995 RMK AO2 LTG DSNT SW AND W SLP141 CB W MOV NE T02890200
KMCO 231732Z 2318/2424 21011KT P6SM VCTS SCT035CB BKN050 BKN100 
     TEMPO 2319/2321 2SM +TSRA BKN025CB 
     FM240000 19005KT P6SM VCSH SCT030 BKN060 
     FM240800 20004KT P6SM BKN008 
     FM241400 24008KT P6SM BKN025 
     FM241800 25010KT P6SM VCSH BKN035